Time;durP1;ratioP1;P1;durP2;ratioP2;P2;SDS_P1;SDS_P2;PMS_P1;PMS_P2;Temp;Humidity;BMP_temperature;BMP_pressure;BME280_temperature;BME280_humidity;BME280_pressure;Samples;Min_cycle;Max_cycle;Signal;HPM_P1;HPM_P2
2021/12/19 00:08:28;;;;;;;348.80;237.93;;;;;;;25.07;35.59;102852.56;5064756;28;20047;-43
2021/12/19 00:10:30;;;;;;;350.80;238.88;;;;;;;25.04;35.19;102848.09;5056623;28;20501;-45
2021/12/19 00:12:59;;;;;;;354.00;237.63;;;;;;;25.03;35.51;102855.06;5063404;28;20036;-43
2021/12/19 00:15:31;;;;;;;351.98;243.85;;;;;;;24.99;35.53;102837.41;5064722;28;20048;-43
2021/12/19 00:17:59;;;;;;;350.13;240.30;;;;;;;24.94;35.63;102833.72;5064723;28;20484;-43
2021/12/19 00:20:28;;;;;;;354.30;248.05;;;;;;;24.98;35.80;102842.63;5046134;28;20033;-43
2021/12/19 00:22:57;;;;;;;354.60;248.07;;;;;;;25.03;35.67;102836.69;5064387;28;20036;-43
2021/12/19 00:25:25;;;;;;;345.65;247.63;;;;;;;24.99;35.34;102829.53;5064112;28;20516;-43
2021/12/19 00:27:54;;;;;;;349.55;248.55;;;;;;;24.96;35.48;102832.06;5063730;28;20048;-43
2021/12/19 00:30:22;;;;;;;350.02;248.85;;;;;;;24.96;35.66;102818.03;5064325;28;20032;-43
2021/12/19 00:32:51;;;;;;;363.25;250.73;;;;;;;24.94;35.47;102817.97;5064326;28;20497;-43
2021/12/19 00:35:19;;;;;;;370.10;252.18;;;;;;;24.89;35.63;102816.91;5064295;28;20032;-43
2021/12/19 00:37:48;;;;;;;374.35;256.58;;;;;;;24.87;35.91;102814.22;5064126;28;20036;-43
2021/12/19 00:40:17;;;;;;;357.90;253.95;;;;;;;24.88;35.60;102809.84;5062727;28;20373;-43
2021/12/19 00:42:51;;;;;;;372.05;255.10;;;;;;;24.87;35.80;102808.97;5064089;28;20376;-43
2021/12/19 00:45:27;;;;;;;367.83;255.95;;;;;;;24.93;35.82;102803.06;5063793;28;20032;-43
2021/12/19 00:47:56;;;;;;;356.83;251.82;;;;;;;24.95;35.59;102793.50;5063884;28;20115;-44
2021/12/19 00:50:26;;;;;;;371.00;257.05;;;;;;;24.88;35.99;102797.63;5064024;28;20978;-42
2021/12/19 00:52:55;;;;;;;361.02;256.67;;;;;;;24.88;35.96;102795.00;5063757;28;20037;-42
2021/12/19 00:55:25;;;;;;;372.58;259.77;;;;;;;24.81;35.70;102792.09;5063600;28;20036;-42
2021/12/19 00:57:54;;;;;;;374.83;258.13;;;;;;;24.85;35.74;102787.03;5063588;28;20029;-43
2021/12/19 01:00:26;;;;;;;363.35;260.27;;;;;;;24.84;35.93;102786.94;5062048;28;20067;-43
2021/12/19 01:02:57;;;;;;;378.20;260.85;;;;;;;24.80;36.08;102785.06;5063778;28;20089;-43
2021/12/19 01:05:26;;;;;;;384.13;268.23;;;;;;;24.82;35.80;102786.91;5063757;28;20474;-43
2021/12/19 01:07:55;;;;;;;381.35;263.58;;;;;;;24.72;35.98;102785.66;5062075;28;20837;-43
2021/12/19 01:10:24;;;;;;;371.67;267.50;;;;;;;24.75;36.16;102782.22;5063654;28;20035;-42
2021/12/19 01:12:52;;;;;;;380.17;267.23;;;;;;;24.76;35.76;102776.16;5063621;28;20032;-42
2021/12/19 01:15:22;;;;;;;372.02;267.23;;;;;;;24.79;36.17;102776.28;5063730;28;20143;-42
2021/12/19 01:17:51;;;;;;;382.08;267.98;;;;;;;24.76;35.78;102770.03;5063805;28;20777;-43
2021/12/19 01:20:23;;;;;;;372.77;265.00;;;;;;;24.76;35.82;102770.03;5062021;28;20024;-42
2021/12/19 01:22:52;;;;;;;384.30;272.90;;;;;;;24.69;36.25;102761.88;5062231;28;20031;-43
2021/12/19 01:25:20;;;;;;;383.15;271.73;;;;;;;24.78;36.21;102766.59;5063456;28;20028;-43
2021/12/19 01:27:49;;;;;;;378.83;266.38;;;;;;;24.76;35.87;102762.16;5063574;28;20047;-43
2021/12/19 01:30:18;;;;;;;385.58;270.08;;;;;;;24.69;36.05;102754.00;5063385;28;20079;-43
2021/12/19 01:32:48;;;;;;;380.45;266.73;;;;;;;24.80;35.88;102767.56;5063401;28;20166;-43
2021/12/19 01:35:18;;;;;;;386.73;272.48;;;;;;;24.74;36.20;102772.56;5063350;28;20025;-42
2021/12/19 01:37:47;;;;;;;385.42;270.63;;;;;;;24.77;36.25;102769.19;5063268;28;20043;-42
2021/12/19 01:40:18;;;;;;;381.30;270.33;;;;;;;24.73;35.85;102766.44;5061492;28;20115;-44
2021/12/19 01:42:52;;;;;;;381.65;270.50;;;;;;;24.72;36.31;102769.00;5063231;28;20837;-43
2021/12/19 01:45:29;;;;;;;379.38;264.98;;;;;;;24.73;35.88;102762.94;5063433;28;20116;-43
2021/12/19 01:47:59;;;;;;;388.60;274.23;;;;;;;24.72;36.17;102771.63;5062612;28;20036;-43
2021/12/19 01:50:33;;;;;;;393.30;274.67;;;;;;;24.67;36.44;102768.78;5063163;28;20031;-42
2021/12/19 01:53:03;;;;;;;395.43;275.90;;;;;;;24.74;35.85;102759.44;5063056;28;20029;-42
2021/12/19 01:55:33;;;;;;;386.17;273.52;;;;;;;24.76;36.24;102763.03;5063364;28;20032;-42
2021/12/19 01:58:01;;;;;;;392.77;279.85;;;;;;;24.68;36.37;102767.06;5063309;28;20032;-42
2021/12/19 02:00:33;;;;;;;389.30;276.05;;;;;;;24.68;36.02;102762.69;5063206;28;20055;-42
2021/12/19 02:03:02;;;;;;;384.20;272.17;;;;;;;24.67;36.42;102762.66;5063327;28;20078;-44
2021/12/19 02:05:31;;;;;;;382.50;270.88;;;;;;;24.67;36.08;102760.03;5063187;28;20029;-43
2021/12/19 02:08:00;;;;;;;390.65;272.92;;;;;;;24.66;35.96;102759.13;5061420;28;20067;-43
2021/12/19 02:10:30;;;;;;;390.73;275.80;;;;;;;24.62;36.57;102756.31;5062733;28;20499;-43
2021/12/19 02:13:00;;;;;;;387.00;274.95;;;;;;;24.64;36.19;102746.78;5065476;28;20565;-45
2021/12/19 02:15:30;;;;;;;393.65;279.83;;;;;;;24.62;36.21;102749.38;5066877;28;20021;-44
2021/12/19 02:18:02;;;;;;;388.45;270.20;;;;;;;24.63;36.21;102745.91;5067309;28;20043;-43
2021/12/19 02:20:37;;;;;;;382.35;274.55;;;;;;;24.59;36.43;102751.88;5067205;28;20020;-42
2021/12/19 02:23:06;;;;;;;390.10;276.08;;;;;;;24.57;36.24;102741.28;5067015;28;20351;-42
2021/12/19 02:25:35;;;;;;;392.45;273.35;;;;;;;24.55;36.16;102737.75;5066468;28;20020;-43
2021/12/19 02:28:04;;;;;;;395.15;278.63;;;;;;;24.55;36.34;102742.06;5066594;28;20060;-43
2021/12/19 02:30:33;;;;;;;396.15;276.17;;;;;;;24.57;36.44;102743.03;5066755;28;20466;-43
2021/12/19 02:33:01;;;;;;;388.17;278.58;;;;;;;24.54;36.46;102746.44;5066526;28;20470;-43
2021/12/19 02:35:33;;;;;;;387.02;277.27;;;;;;;24.53;36.37;102734.16;5066711;28;20024;-44
2021/12/19 02:48:41;;;;;;;389.27;275.55;;;;;;;24.48;36.46;102725.22;5060619;28;20041;-43
2021/12/19 02:51:10;;;;;;;399.95;283.38;;;;;;;24.51;36.58;102727.94;5066204;28;20051;-45
2021/12/19 02:53:42;;;;;;;396.48;276.40;;;;;;;24.45;36.43;102716.31;5066157;28;20101;-43
2021/12/19 02:56:13;;;;;;;392.58;274.73;;;;;;;24.42;36.42;102719.72;5066242;28;20036;-43
2021/12/19 02:58:43;;;;;;;376.60;269.00;;;;;;;24.39;36.55;102709.13;5066196;28;20397;-43
2021/12/19 03:01:15;;;;;;;386.25;277.20;;;;;;;24.43;36.45;102722.41;5066139;28;20044;-43
2021/12/19 03:03:44;;;;;;;405.92;289.33;;;;;;;24.49;36.62;102718.25;5065813;28;20028;-44
2021/12/19 03:06:13;;;;;;;391.38;276.50;;;;;;;24.42;36.46;102720.63;5065718;28;20029;-43
2021/12/19 03:08:45;;;;;;;399.27;280.13;;;;;;;24.38;36.70;102726.56;5065755;28;20057;-43
2021/12/19 03:19:36;;;;;;;389.75;274.08;;;;;;;24.47;36.44;102718.16;5059796;28;20048;-42
2021/12/19 03:22:04;;;;;;;398.90;280.35;;;;;;;24.38;36.57;102705.59;5065833;28;20037;-42
2021/12/19 03:24:33;;;;;;;386.15;273.38;;;;;;;24.37;36.32;102705.53;5065191;28;20032;-42
2021/12/19 03:27:02;;;;;;;386.80;277.23;;;;;;;24.36;36.72;102698.50;5065701;28;20023;-44
2021/12/19 03:29:30;;;;;;;394.10;282.65;;;;;;;24.36;36.76;102701.13;5065329;28;20067;-43
2021/12/19 03:31:59;;;;;;;394.27;278.98;;;;;;;24.34;36.39;102693.19;5065442;28;20137;-44
2021/12/19 03:34:27;;;;;;;379.85;271.88;;;;;;;24.37;36.65;102698.56;5065671;28;20033;-42
2021/12/19 03:36:56;;;;;;;391.80;278.05;;;;;;;24.37;36.92;102693.31;5065530;28;20111;-42
2021/12/19 03:39:32;;;;;;;396.80;281.63;;;;;;;24.35;36.57;102691.47;5065486;28;20792;-42
2021/12/19 03:42:01;;;;;;;400.20;282.38;;;;;;;24.37;36.59;102681.94;5065223;28;20032;-43
2021/12/19 03:44:30;;;;;;;386.38;278.10;;;;;;;24.36;36.56;102678.41;5065342;28;20033;-43
2021/12/19 03:46:59;;;;;;;387.20;274.80;;;;;;;24.35;36.57;102684.47;5063437;28;20401;-43
2021/12/19 03:49:27;;;;;;;393.27;281.42;;;;;;;24.13;36.51;102653.91;5065221;28;20306;-43
2021/12/19 03:51:54;;;;;;;387.85;280.83;;;;;;;24.34;36.81;102679.19;5065261;28;20021;-42
2021/12/19 03:54:23;;;;;;;395.27;281.83;;;;;;;24.26;36.67;102685.00;5065430;28;20021;-43
2021/12/19 03:56:52;;;;;;;397.23;284.55;;;;;;;24.26;36.53;102682.41;5065042;28;20024;-43
2021/12/19 03:59:20;;;;;;;400.02;290.30;;;;;;;24.27;37.33;102681.56;5064864;28;20060;-42
2021/12/19 04:01:52;;;;;;;395.95;287.17;;;;;;;24.27;36.52;102675.44;5064886;28;20428;-43
2021/12/19 04:04:20;;;;;;;396.85;282.55;;;;;;;24.24;36.59;102672.69;5063398;28;20089;-44
2021/12/19 04:06:49;;;;;;;395.17;279.20;;;;;;;24.26;36.91;102669.28;5064434;28;20033;-46
2021/12/19 04:09:17;;;;;;;396.42;281.58;;;;;;;24.26;36.55;102673.66;5064744;28;20463;-44
2021/12/19 04:11:46;;;;;;;386.77;278.67;;;;;;;24.27;37.01;102664.94;5064826;28;20036;-42
2021/12/19 04:14:15;;;;;;;404.40;287.17;;;;;;;24.31;36.41;102668.56;5064918;28;20028;-43
2021/12/19 04:16:43;;;;;;;401.83;289.38;;;;;;;24.27;36.54;102670.19;5065031;28;20090;-42
2021/12/19 04:19:12;;;;;;;397.35;282.52;;;;;;;24.25;36.63;102666.63;5064196;28;20086;-43
2021/12/19 04:21:41;;;;;;;394.40;286.95;;;;;;;24.28;36.56;102670.25;5062807;28;20379;-43
2021/12/19 04:24:09;;;;;;;399.42;285.05;;;;;;;24.28;37.00;102669.34;5064490;28;20035;-43
2021/12/19 04:26:38;;;;;;;403.25;285.50;;;;;;;24.20;36.66;102663.81;5064224;28;20154;-42
2021/12/19 04:29:06;;;;;;;389.90;281.35;;;;;;;24.22;36.74;102664.78;5064523;28;20029;-43
2021/12/19 04:31:35;;;;;;;400.23;284.58;;;;;;;24.24;36.52;102670.06;5063945;28;20121;-42
2021/12/19 04:34:04;;;;;;;391.60;280.30;;;;;;;24.20;36.86;102657.66;5063733;28;20033;-42
2021/12/19 04:36:37;;;;;;;394.75;278.88;;;;;;;24.17;36.92;102647.97;5063767;28;20047;-42
2021/12/19 04:56:02;;;;;;;391.13;284.42;;;;;;;24.12;36.73;102625.91;5064188;28;20080;-43
2021/12/19 05:01:07;;;;;;;391.52;279.83;;;;;;;24.18;36.86;102639.25;5063777;28;20032;-43
2021/12/19 05:03:41;;;;;;;396.80;279.70;;;;;;;24.15;36.61;102627.78;5063957;28;20067;-42
2021/12/19 05:06:19;;;;;;;399.77;287.02;;;;;;;24.15;36.72;102633.00;5063501;28;20377;-42
2021/12/19 05:14:29;;;;;;;395.85;281.35;;;;;;;24.11;37.01;102640.75;5059216;28;20043;-43
2021/12/19 05:17:04;;;;;;;402.65;284.70;;;;;;;24.07;37.25;102643.19;5063679;28;20121;-42
2021/12/19 05:19:44;;;;;;;;;;;;;;;24.23;36.93;102655.16;5064208;28;20033;-43
2021/12/19 05:22:13;;;;;;;390.08;286.17;;;;;;;24.22;36.72;102638.56;5063607;28;20309;-42
2021/12/19 05:24:44;;;;;;;383.10;277.52;;;;;;;24.16;37.05;102648.78;5063188;28;20032;-43
2021/12/19 05:27:13;;;;;;;390.65;278.75;;;;;;;24.09;37.17;102658.16;5063440;28;20024;-42
2021/12/19 05:29:42;;;;;;;391.15;276.17;;;;;;;24.02;37.30;102645.63;5063164;28;20028;-44
2021/12/19 05:32:10;;;;;;;389.75;277.42;;;;;;;24.07;36.88;102648.44;5062912;28;20031;-42
2021/12/19 05:34:39;;;;;;;413.75;287.10;;;;;;;24.03;37.05;102646.53;5061300;28;20118;-43
2021/12/19 05:45:30;;;;;;;399.98;283.08;;;;;;;23.97;37.27;102634.97;5056572;28;20374;-42
2021/12/19 05:47:59;;;;;;;392.20;281.77;;;;;;;23.96;37.13;102650.59;5062072;28;20119;-42
2021/12/19 05:50:27;;;;;;;391.50;275.55;;;;;;;23.98;37.09;102641.13;5063312;28;20119;-42
2021/12/19 05:52:56;;;;;;;393.58;280.00;;;;;;;23.98;36.87;102638.50;5061906;28;20070;-42
2021/12/19 05:55:24;;;;;;;386.73;275.77;;;;;;;23.98;36.89;102635.88;5063389;28;20077;-43
2021/12/19 05:57:53;;;;;;;390.75;276.42;;;;;;;24.00;36.92;102634.19;5062773;28;20033;-43
2021/12/19 06:00:22;;;;;;;401.02;280.23;;;;;;;23.96;37.22;102630.53;5063103;28;20085;-43
2021/12/19 06:02:50;;;;;;;390.05;278.02;;;;;;;23.96;37.27;102625.31;5063132;28;20052;-43
2021/12/19 06:05:19;;;;;;;391.63;283.23;;;;;;;24.00;36.90;102630.69;5062623;28;20516;-43
2021/12/19 06:07:48;;;;;;;391.42;273.45;;;;;;;23.95;37.22;102623.47;5063171;28;20036;-45
2021/12/19 06:10:16;;;;;;;388.25;279.10;;;;;;;24.01;36.95;102622.84;5062763;28;20074;-43
2021/12/19 06:12:45;;;;;;;382.15;271.88;;;;;;;24.00;37.14;102626.31;5062644;28;20135;-42
2021/12/19 06:15:14;;;;;;;392.92;280.35;;;;;;;24.01;37.26;102627.22;5063179;28;20028;-43
2021/12/19 06:17:45;;;;;;;393.33;276.90;;;;;;;23.91;37.03;102616.31;5063067;28;20074;-42
2021/12/19 06:20:14;;;;;;;389.75;274.50;;;;;;;23.96;37.39;102619.16;5062446;28;20428;-45
2021/12/19 06:22:42;;;;;;;394.23;279.35;;;;;;;23.94;37.08;102624.31;5062837;28;20033;-42
2021/12/19 06:25:12;;;;;;;384.80;271.95;;;;;;;24.03;36.98;102625.56;5062839;28;20020;-44
2021/12/19 06:27:40;;;;;;;392.73;275.20;;;;;;;24.00;37.10;102622.81;5062603;28;20111;-42
2021/12/19 06:30:10;;;;;;;388.60;276.00;;;;;;;23.97;37.17;102623.59;5062336;28;20036;-43
2021/12/19 06:32:38;;;;;;;400.73;277.27;;;;;;;23.96;37.33;102620.06;5062732;28;20033;-43
2021/12/19 06:35:11;;;;;;;391.75;272.35;;;;;;;23.91;37.37;102620.69;5062794;28;20115;-43
2021/12/19 06:37:40;;;;;;;382.92;270.00;;;;;;;23.94;36.96;102619.06;5062669;28;20481;-42
2021/12/19 06:40:10;;;;;;;394.65;279.05;;;;;;;23.91;37.48;102624.19;5062865;28;20032;-43
2021/12/19 06:42:38;;;;;;;388.08;279.25;;;;;;;23.87;37.20;102622.31;5061163;28;20028;-42
2021/12/19 06:45:08;;;;;;;395.02;279.52;;;;;;;23.94;37.21;102628.69;5062431;28;20386;-42
2021/12/19 06:47:36;;;;;;;398.02;273.58;;;;;;;23.86;37.40;102617.88;5062594;28;20032;-42
2021/12/19 06:50:06;;;;;;;395.13;274.95;;;;;;;23.80;37.34;102623.78;5060941;28;20470;-44
2021/12/19 06:52:36;;;;;;;387.80;267.85;;;;;;;23.97;36.94;102624.47;5062757;28;20032;-42
2021/12/19 06:55:06;;;;;;;401.40;277.85;;;;;;;23.88;37.02;102616.22;5061568;28;20086;-42
2021/12/19 06:57:34;;;;;;;385.77;271.10;;;;;;;23.89;37.44;102619.72;5062988;28;20032;-43
2021/12/19 07:00:05;;;;;;;376.75;262.67;;;;;;;23.81;36.99;102620.34;5066255;28;20040;-43
2021/12/19 07:02:34;;;;;;;386.45;270.13;;;;;;;23.84;37.43;102611.69;5064715;28;20037;-42
2021/12/19 07:05:02;;;;;;;390.45;273.65;;;;;;;23.87;37.14;102601.34;5066167;28;20635;-43
2021/12/19 07:07:31;;;;;;;400.23;275.13;;;;;;;23.91;36.97;102605.84;5065683;28;20024;-44
2021/12/19 07:09:59;;;;;;;393.90;274.88;;;;;;;23.90;37.01;102611.03;5065360;28;20055;-43
2021/12/19 07:12:28;;;;;;;404.67;281.92;;;;;;;23.87;37.34;102616.16;5065675;28;20101;-43
2021/12/19 07:14:57;;;;;;;394.50;276.90;;;;;;;23.80;37.53;102605.44;5065871;28;20036;-43
2021/12/19 07:17:26;;;;;;;387.23;270.77;;;;;;;23.82;37.53;102601.16;5066155;28;20035;-43
2021/12/19 07:19:54;;;;;;;381.95;266.02;;;;;;;23.87;37.34;102610.91;5066061;28;20099;-42
2021/12/19 07:22:23;;;;;;;380.95;267.23;;;;;;;23.88;37.12;102612.69;5066001;28;20430;-43
2021/12/19 07:24:52;;;;;;;392.50;271.15;;;;;;;23.83;36.95;102613.41;5065203;28;20031;-43
2021/12/19 07:27:20;;;;;;;384.25;262.73;;;;;;;23.82;37.00;102608.13;5065700;28;20036;-42
2021/12/19 07:29:49;;;;;;;362.23;255.02;;;;;;;23.86;36.95;102602.16;5065212;28;20123;-43
2021/12/19 07:32:16;;;;;;;362.60;251.48;;;;;;;23.85;36.72;102609.94;5065358;28;20096;-43
2021/12/19 07:34:46;;;;;;;350.73;243.88;;;;;;;23.86;36.84;102616.97;5065596;28;20024;-42
2021/12/19 07:37:15;;;;;;;336.38;232.55;;;;;;;23.80;36.84;102609.78;5065724;28;20033;-43
2021/12/19 07:39:54;;;;;;;331.75;233.57;;;;;;;23.72;36.75;102608.59;5065821;28;20067;-42
2021/12/19 07:42:22;;;;;;;320.90;225.25;;;;;;;23.83;36.61;102609.91;5065176;28;20028;-43
2021/12/19 07:44:50;;;;;;;325.52;225.18;;;;;;;23.79;36.54;102607.97;5065413;28;20033;-43
2021/12/19 07:47:19;;;;;;;322.92;222.32;;;;;;;23.76;36.60;102600.91;5065439;28;20385;-43
2021/12/19 07:49:47;;;;;;;329.35;219.75;;;;;;;23.77;36.96;102604.41;5064914;28;20106;-43
2021/12/19 07:52:15;;;;;;;328.75;222.20;;;;;;;23.79;36.84;102598.41;5065313;28;20085;-43
2021/12/19 07:54:44;;;;;;;316.83;225.40;;;;;;;23.79;36.78;102594.88;5065211;28;20036;-43
2021/12/19 07:57:13;;;;;;;322.17;213.40;;;;;;;23.80;36.70;102602.81;5063673;28;20093;-42
2021/12/19 07:59:41;;;;;;;312.92;219.10;;;;;;;23.84;37.05;102601.22;5065100;28;20033;-42
2021/12/19 08:02:10;;;;;;;313.55;216.77;;;;;;;23.81;36.84;102601.09;5064840;28;20854;-43
2021/12/19 08:04:38;;;;;;;326.25;220.70;;;;;;;23.77;37.30;102600.06;5065143;28;20462;-43
2021/12/19 08:07:08;;;;;;;310.10;214.60;;;;;;;23.82;37.35;102603.78;5064984;28;20032;-42
2021/12/19 08:09:39;;;;;;;306.55;211.68;;;;;;;23.76;36.95;102600.91;5063860;28;20102;-44
2021/12/19 08:12:09;;;;;;;311.15;210.80;;;;;;;23.78;37.13;102591.38;5064737;28;20513;-43
2021/12/19 08:14:37;;;;;;;313.50;214.63;;;;;;;23.76;37.35;102602.63;5064865;28;20046;-47
2021/12/19 08:17:06;;;;;;;318.38;217.75;;;;;;;23.74;37.46;102607.81;5064484;28;20028;-45
2021/12/19 08:19:34;;;;;;;310.63;213.68;;;;;;;23.71;37.50;102610.28;5062796;28;20385;-45
2021/12/19 08:22:03;;;;;;;318.90;213.38;;;;;;;23.72;37.40;102605.97;5064652;28;20028;-43
2021/12/19 08:24:31;;;;;;;303.55;207.10;;;;;;;23.81;37.06;102606.31;5064383;28;20074;-42
2021/12/19 08:27:00;;;;;;;307.80;215.27;;;;;;;23.75;37.25;102599.13;5064243;28;20032;-43
2021/12/19 08:29:27;;;;;;;321.33;215.00;;;;;;;23.74;37.33;102601.69;5064253;28;20066;-43
2021/12/19 08:31:55;;;;;;;308.88;211.35;;;;;;;23.74;37.25;102607.81;5064090;28;20044;-43
2021/12/19 08:34:22;;;;;;;311.00;211.05;;;;;;;23.77;37.39;102607.03;5064494;28;20052;-43
2021/12/19 08:36:50;;;;;;;311.77;209.70;;;;;;;23.82;37.19;102606.41;5063366;28;20028;-43
2021/12/19 08:39:17;;;;;;;320.40;213.57;;;;;;;23.91;37.29;102608.47;5064351;28;20074;-43
2021/12/19 08:41:46;;;;;;;304.67;212.05;;;;;;;23.82;36.95;102603.78;5064347;28;20036;-43
2021/12/19 08:44:14;;;;;;;312.42;214.55;;;;;;;23.77;37.21;102597.44;5064343;28;20056;-42
2021/12/19 08:46:45;;;;;;;316.63;211.43;;;;;;;23.82;37.32;102603.78;5064331;28;20024;-43
2021/12/19 08:49:13;;;;;;;319.42;214.77;;;;;;;23.89;37.18;102604.91;5064460;28;20566;-43
2021/12/19 08:51:42;;;;;;;321.23;215.15;;;;;;;23.89;37.56;102598.75;5063673;28;20051;-44
2021/12/19 08:54:11;;;;;;;327.70;215.52;;;;;;;23.92;37.51;102609.38;5062582;28;20024;-43
2021/12/19 08:56:39;;;;;;;316.95;212.20;;;;;;;23.92;37.48;102609.38;5063647;28;20060;-43
2021/12/19 08:59:07;;;;;;;313.00;211.75;;;;;;;23.94;37.01;102605.09;5062198;28;20463;-43
2021/12/19 09:01:36;;;;;;;314.60;217.05;;;;;;;23.89;37.46;102606.63;5064136;28;20028;-43
2021/12/19 09:04:05;;;;;;;322.73;217.80;;;;;;;23.95;37.27;102601.63;5063758;28;20033;-43
2021/12/19 09:06:34;;;;;;;318.98;210.80;;;;;;;23.97;37.18;102607.88;5063593;28;20047;-43
2021/12/19 09:09:04;;;;;;;317.77;216.00;;;;;;;23.88;37.25;102597.88;5063811;28;20486;-43
2021/12/19 09:11:34;;;;;;;318.23;212.35;;;;;;;23.91;37.24;102608.47;5063586;28;20036;-43
2021/12/19 09:14:03;;;;;;;322.35;216.60;;;;;;;23.97;37.33;102611.38;5063355;28;20067;-42
2021/12/19 09:16:32;;;;;;;318.05;214.48;;;;;;;24.03;37.15;102612.44;5061871;28;20103;-43
2021/12/19 09:19:01;;;;;;;335.38;219.48;;;;;;;24.05;36.99;102611.66;5063075;28;20036;-43
2021/12/19 09:21:29;;;;;;;336.13;221.52;;;;;;;24.17;36.84;102621.75;5063309;28;20032;-43
2021/12/19 09:23:58;;;;;;;329.67;220.13;;;;;;;24.16;36.90;102622.56;5063566;28;20038;-43
2021/12/19 09:26:27;;;;;;;319.83;221.63;;;;;;;24.20;36.86;102624.47;5063453;28;20032;-44
2021/12/19 09:28:54;;;;;;;325.33;222.80;;;;;;;24.10;37.02;102614.47;5063534;28;20074;-44
2021/12/19 09:31:24;;;;;;;333.48;229.55;;;;;;;23.98;36.98;102614.91;5062855;28;20032;-42
2021/12/19 09:33:53;;;;;;;332.15;223.63;;;;;;;24.02;36.97;102619.41;5063211;28;20174;-43
2021/12/19 09:36:21;;;;;;;341.85;230.43;;;;;;;24.13;37.09;102617.19;5062873;28;20043;-43
2021/12/19 09:38:50;;;;;;;341.08;230.77;;;;;;;24.28;36.79;102622.16;5063215;28;20025;-43
2021/12/19 09:41:28;;;;;;;347.02;232.60;;;;;;;24.31;36.51;102611.78;5063370;28;20477;-43
2021/12/19 09:44:03;;;;;;;347.35;234.38;;;;;;;24.34;36.97;102608.38;5061998;28;20075;-43
2021/12/19 09:46:36;;;;;;;351.15;231.45;;;;;;;24.34;36.61;102611.00;5063491;28;20104;-43
2021/12/19 09:49:07;;;;;;;350.88;240.88;;;;;;;24.35;36.78;102603.16;5062886;28;20097;-46
2021/12/19 09:51:36;;;;;;;348.42;240.00;;;;;;;24.37;36.37;102604.13;5062953;28;20950;-44
2021/12/19 09:54:05;;;;;;;339.77;236.80;;;;;;;24.37;36.63;102603.25;5062792;28;20359;-43
2021/12/19 09:56:34;;;;;;;359.55;238.98;;;;;;;24.41;36.79;102610.38;5063081;28;20542;-45
2021/12/19 09:59:04;;;;;;;358.95;242.48;;;;;;;24.34;36.91;102603.13;5063172;28;20047;-42
2021/12/19 10:01:33;;;;;;;343.02;231.90;;;;;;;24.30;36.55;102611.72;5062738;28;20059;-43
2021/12/19 10:04:01;;;;;;;342.33;237.38;;;;;;;24.33;36.49;102617.06;5062991;28;20032;-43
2021/12/19 10:06:31;;;;;;;357.73;243.40;;;;;;;24.35;37.03;102621.53;5062997;28;20048;-43
2021/12/19 10:09:19;;;;;;;344.75;237.35;;;;;;;24.40;36.49;102627.84;5063070;28;20106;-43
2021/12/19 10:14:41;;;;;;;360.92;237.15;;;;;;;24.50;36.43;102631.72;5063019;28;20074;-43
2021/12/19 10:17:18;;;;;;;337.38;233.48;;;;;;;24.40;36.71;102622.59;5062735;28;20033;-43
2021/12/19 10:19:49;;;;;;;349.73;235.60;;;;;;;24.40;36.46;102621.72;5062683;28;20206;-44
2021/12/19 10:22:38;;;;;;;335.70;231.63;;;;;;;24.47;36.70;102615.84;5063036;28;20510;-43
2021/12/19 10:25:22;;;;;;;346.23;237.63;;;;;;;24.52;36.35;102621.25;5057904;28;20036;-42
2021/12/19 10:27:55;;;;;;;345.08;233.32;;;;;;;24.39;36.78;102619.94;5062765;28;20170;-43
2021/12/19 10:30:26;;;;;;;343.63;229.70;;;;;;;24.37;36.49;102625.09;5062737;28;20095;-43
2021/12/19 10:32:57;;;;;;;350.20;233.32;;;;;;;24.48;36.36;102619.38;5063335;28;20035;-43
2021/12/19 10:35:29;;;;;;;335.35;231.70;;;;;;;24.47;36.30;102614.97;5066652;28;20028;-42
2021/12/19 10:37:58;;;;;;;355.65;243.98;;;;;;;24.47;36.38;102621.09;5066488;28;20108;-42
2021/12/19 10:40:27;;;;;;;347.98;245.27;;;;;;;24.35;36.76;102583.94;5066709;28;20029;-43
2021/12/19 10:43:00;;;;;;;356.45;245.60;;;;;;;24.40;36.88;102611.25;5066434;28;20490;-42
2021/12/19 10:45:48;;;;;;;351.98;244.10;;;;;;;24.49;36.62;102605.44;5066669;28;20037;-42
2021/12/19 10:48:24;;;;;;;366.83;250.88;;;;;;;24.49;36.78;102605.44;5066457;28;20032;-42
2021/12/19 10:50:57;;;;;;;373.77;257.20;;;;;;;24.43;36.85;102606.06;5066228;28;20111;-42
2021/12/19 10:53:32;;;;;;;384.02;257.42;;;;;;;24.51;36.46;102599.41;5066699;28;20032;-43
2021/12/19 10:56:02;;;;;;;373.45;255.30;;;;;;;24.45;36.73;102603.53;5065981;28;20028;-42
2021/12/19 10:58:38;;;;;;;366.73;255.48;;;;;;;24.45;36.87;102598.28;5064730;28;20111;-42
2021/12/19 11:01:09;;;;;;;369.67;256.67;;;;;;;24.33;36.68;102598.72;5066483;28;20039;-42
2021/12/19 11:03:39;;;;;;;369.70;252.85;;;;;;;24.36;37.07;102596.22;5066139;28;20029;-42
2021/12/19 11:06:22;;;;;;;372.30;252.88;;;;;;;24.40;36.89;102591.13;5065895;28;20028;-42
2021/12/19 11:08:51;;;;;;;375.42;262.92;;;;;;;24.39;36.74;102589.34;5065915;28;20078;-42
2021/12/19 11:11:58;;;;;;;380.48;261.70;;;;;;;24.36;36.74;102589.22;5065955;28;20138;-42
2021/12/19 11:14:31;;;;;;;380.30;267.90;;;;;;;24.45;37.11;102577.28;5065318;28;20037;-42
2021/12/19 11:17:03;;;;;;;389.02;272.67;;;;;;;24.46;36.69;102576.47;5065507;28;20020;-42
2021/12/19 11:19:31;;;;;;;396.10;273.10;;;;;;;24.50;37.09;102565.22;5065974;28;20115;-42
2021/12/19 11:22:00;;;;;;;399.02;274.65;;;;;;;24.57;36.82;102562.88;5065414;28;20036;-43
2021/12/19 11:24:29;;;;;;;403.65;286.27;;;;;;;24.46;36.87;102561.59;5065746;28;20501;-43
2021/12/19 11:27:01;;;;;;;398.85;280.70;;;;;;;24.33;37.23;102555.00;5065649;28;20028;-42
2021/12/19 11:29:30;;;;;;;401.55;284.33;;;;;;;24.47;37.21;102552.03;5065728;28;20055;-42
2021/12/19 11:32:03;;;;;;;405.15;285.67;;;;;;;24.60;36.95;102555.94;5065308;28;20157;-43
2021/12/19 11:35:00;;;;;;;413.80;293.92;;;;;;;24.52;37.19;102547.81;5065597;28;20381;-43
2021/12/19 11:37:34;;;;;;;408.67;296.70;;;;;;;24.59;36.95;102549.81;5058951;28;20052;-43
2021/12/19 11:40:05;;;;;;;415.30;299.65;;;;;;;24.56;37.10;102541.84;5065470;28;20036;-43
2021/12/19 11:42:35;;;;;;;416.45;301.23;;;;;;;24.63;36.98;102548.19;5064843;28;20090;-43
2021/12/19 11:45:25;;;;;;;411.23;292.33;;;;;;;24.51;37.12;102539.06;5065340;28;20029;-44
2021/12/19 11:47:58;;;;;;;409.67;295.80;;;;;;;24.51;37.28;102536.44;5063766;28;20469;-43
2021/12/19 11:50:34;;;;;;;411.77;290.27;;;;;;;24.47;36.73;102531.03;5064686;28;20033;-43
2021/12/19 11:53:09;;;;;;;392.17;283.02;;;;;;;24.35;37.30;102528.84;5064798;28;20028;-43
2021/12/19 11:55:39;;;;;;;397.00;275.60;;;;;;;24.28;37.04;102528.63;5065359;28;20043;-43
2021/12/19 11:58:11;;;;;;;378.35;264.48;;;;;;;24.21;37.08;102512.59;5065263;28;20063;-43
2021/12/19 12:00:43;;;;;;;384.05;264.80;;;;;;;24.21;36.86;102507.38;5065343;28;20066;-43
2021/12/19 12:03:15;;;;;;;356.17;255.23;;;;;;;24.17;37.10;102510.69;5064879;28;20466;-43
2021/12/19 12:05:45;;;;;;;356.23;250.35;;;;;;;24.17;36.91;102498.50;5065121;28;20025;-43
2021/12/19 12:08:16;;;;;;;358.60;257.67;;;;;;;24.15;37.22;102494.94;5064145;28;20024;-43
2021/12/19 12:11:03;;;;;;;367.20;253.05;;;;;;;24.26;37.02;102490.94;5063298;28;20106;-42